Time;durP1;ratioP1;P1;durP2;ratioP2;P2;SDS_P1;SDS_P2;PMS_P1;PMS_P2;Temp;Humidity;BMP_temperature;BMP_pressure;BME280_temperature;BME280_humidity;BME280_pressure;Samples;Min_cycle;Max_cycle;Signal;HPM_P1;HPM_P2
2023/05/13 00:01:51;;;;;;;19.92;7.55;;;11.50;99.90;;;;;;5109181;27;20460;-82
2023/05/13 00:04:16;;;;;;;21.23;7.90;;;11.50;99.90;;;;;;5109810;27;20039;-82
2023/05/13 00:06:42;;;;;;;12.20;7.28;;;11.40;99.90;;;;;;5109101;27;20035;-82
2023/05/13 00:09:08;;;;;;;12.63;7.18;;;11.40;99.90;;;;;;5105798;28;20046;-82
2023/05/13 00:11:34;;;;;;;13.13;7.22;;;11.40;99.90;;;;;;5101211;27;20050;-82
2023/05/13 00:14:00;;;;;;;12.38;7.43;;;11.40;99.90;;;;;;5123550;27;20508;-82
2023/05/13 00:16:27;;;;;;;14.13;7.20;;;11.30;99.90;;;;;;5117551;27;20090;-82
2023/05/13 00:18:54;;;;;;;11.52;7.47;;;11.30;99.90;;;;;;5108048;28;20117;-82
2023/05/13 00:21:20;;;;;;;16.65;8.00;;;11.30;99.90;;;;;;5126152;27;20434;-82
2023/05/13 00:23:46;;;;;;;13.35;8.02;;;11.30;99.90;;;;;;5125742;27;20061;-82
2023/05/13 00:26:11;;;;;;;14.13;8.10;;;11.30;99.90;;;;;;5109755;27;20109;-82
2023/05/13 00:28:37;;;;;;;14.32;8.23;;;11.20;99.90;;;;;;5126542;27;20373;-85
2023/05/13 00:31:03;;;;;;;12.95;8.75;;;11.20;99.90;;;;;;5125387;27;20047;-85
2023/05/13 00:33:28;;;;;;;14.18;8.05;;;11.20;99.90;;;;;;5123110;27;20043;-83
2023/05/13 00:35:54;;;;;;;10.95;7.88;;;11.20;99.90;;;;;;5101312;28;20062;-82
2023/05/13 00:38:19;;;;;;;13.48;8.25;;;11.20;99.90;;;;;;5107463;28;20039;-82
2023/05/13 00:40:46;;;;;;;13.63;8.23;;;11.10;99.90;;;;;;5126655;28;20111;-83
2023/05/13 00:43:11;;;;;;;20.63;7.80;;;11.10;99.90;;;;;;5108286;28;20391;-82
2023/05/13 00:45:37;;;;;;;11.50;7.72;;;11.10;99.90;;;;;;5108255;28;20050;-82
2023/05/13 00:48:05;;;;;;;11.77;8.20;;;11.00;99.90;;;;;;5126085;28;20053;-84
2023/05/13 00:50:32;;;;;;;14.50;7.68;;;11.10;99.90;;;;;;5124787;28;20135;-84
2023/05/13 00:52:59;;;;;;;17.95;8.65;;;11.00;99.90;;;;;;5091645;28;20529;-82
2023/05/13 00:55:25;;;;;;;14.98;7.70;;;10.90;99.90;;;;;;5101934;28;20051;-82
2023/05/13 00:57:51;;;;;;;16.42;8.70;;;10.90;99.90;;;;;;5108215;28;20039;-81
2023/05/13 01:00:17;;;;;;;15.15;7.90;;;10.90;99.90;;;;;;5125978;28;20097;-82
2023/05/13 01:03:01;;;;;;;12.40;8.57;;;10.90;99.90;;;;;;5105335;28;20039;-82
2023/05/13 01:05:40;;;;;;;15.38;7.70;;;10.90;99.90;;;;;;5103647;28;20153;-82
2023/05/13 01:08:19;;;;;;;14.90;7.63;;;10.80;99.90;;;;;;5126892;28;20478;-82
2023/05/13 01:11:00;;;;;;;15.07;7.88;;;10.90;99.90;;;;;;5125736;28;20043;-82
2023/05/13 01:13:32;;;;;;;14.75;8.82;;;10.80;99.90;;;;;;5119622;28;20050;-82
2023/05/13 01:16:07;;;;;;;13.40;7.63;;;10.70;99.90;;;;;;5125283;28;20054;-82
2023/05/13 01:18:42;;;;;;;16.02;8.00;;;10.70;99.90;;;;;;5118622;28;20462;-82
2023/05/13 01:21:08;;;;;;;13.48;7.97;;;10.70;99.90;;;;;;5108895;28;20039;-82
2023/05/13 01:23:34;;;;;;;13.70;8.35;;;10.70;99.90;;;;;;5125341;28;20489;-81
2023/05/13 01:26:00;;;;;;;13.45;8.13;;;10.70;99.90;;;;;;5105019;28;20089;-82
2023/05/13 01:28:25;;;;;;;13.40;8.48;;;10.70;99.90;;;;;;5107277;28;20035;-82
2023/05/13 01:30:51;;;;;;;16.55;8.45;;;10.70;99.90;;;;;;5125851;27;20043;-82
2023/05/13 01:33:18;;;;;;;14.82;9.20;;;10.70;99.90;;;;;;5141941;27;20059;-82
2023/05/13 01:35:46;;;;;;;18.35;9.20;;;10.60;99.90;;;;;;5119319;27;20039;-82
2023/05/13 01:38:14;;;;;;;16.05;8.75;;;10.60;99.90;;;;;;5123591;27;20414;-82
2023/05/13 01:40:41;;;;;;;14.32;9.20;;;10.50;99.90;;;;;;5104535;27;20047;-82
2023/05/13 01:43:07;;;;;;;16.00;8.32;;;10.50;99.90;;;;;;5128759;27;20367;-82
2023/05/13 01:45:33;;;;;;;20.15;9.15;;;10.50;99.90;;;;;;5112015;27;20072;-82
2023/05/13 01:47:59;;;;;;;14.05;9.68;;;10.50;99.90;;;;;;5111441;27;20039;-83
2023/05/13 01:50:25;;;;;;;14.75;9.10;;;10.50;99.90;;;;;;5129206;27;20047;-82
2023/05/13 01:52:51;;;;;;;12.85;8.70;;;10.50;99.90;;;;;;5112612;27;20028;-82
2023/05/13 01:55:18;;;;;;;18.02;9.18;;;10.40;99.90;;;;;;5111587;27;20504;-82
2023/05/13 01:57:43;;;;;;;17.15;9.65;;;10.40;99.90;;;;;;5111900;27;20038;-82
2023/05/13 02:00:10;;;;;;;17.13;10.05;;;10.40;99.90;;;;;;5129312;27;20120;-82
2023/05/13 02:02:35;;;;;;;18.40;9.52;;;10.30;99.90;;;;;;5110924;27;20031;-82
2023/05/13 02:05:01;;;;;;;13.13;9.30;;;10.30;99.90;;;;;;5104040;27;20707;-82
2023/05/13 02:07:27;;;;;;;18.63;10.73;;;10.30;99.90;;;;;;5124920;27;20051;-82
2023/05/13 02:09:58;;;;;;;13.55;9.80;;;10.30;99.90;;;;;;5117315;27;20420;-82
2023/05/13 02:12:25;;;;;;;18.08;10.10;;;10.30;99.90;;;;;;5122222;27;20039;-82
2023/05/13 02:14:52;;;;;;;19.73;9.93;;;10.30;99.90;;;;;;5104549;27;20051;-82
2023/05/13 02:17:18;;;;;;;12.88;10.38;;;10.30;99.90;;;;;;5124577;27;20058;-82
2023/05/13 02:19:43;;;;;;;14.50;10.13;;;10.20;99.90;;;;;;5101897;27;20134;-82
2023/05/13 02:22:09;;;;;;;15.55;10.45;;;10.20;99.90;;;;;;5123496;27;20055;-82
2023/05/13 02:24:38;;;;;;;19.05;11.15;;;10.30;99.90;;;;;;5102237;27;20044;-82
2023/05/13 02:27:06;;;;;;;14.55;10.18;;;10.20;99.90;;;;;;5128381;27;20549;-82
2023/05/13 02:29:31;;;;;;;14.75;10.20;;;10.50;99.90;;;;;;5125503;27;20040;-82
2023/05/13 02:31:57;;;;;;;16.23;10.52;;;10.20;99.90;;;;;;5125379;27;20436;-82
2023/05/13 02:34:23;;;;;;;23.80;10.95;;;10.20;99.90;;;;;;5102738;27;20047;-81
2023/05/13 02:36:48;;;;;;;17.73;11.75;;;10.10;99.90;;;;;;5110382;27;20419;-82
2023/05/13 02:39:14;;;;;;;15.65;11.07;;;10.20;99.90;;;;;;5111316;27;20043;-82
2023/05/13 02:41:40;;;;;;;22.73;11.13;;;10.10;99.90;;;;;;5104034;28;20039;-81
2023/05/13 02:44:06;;;;;;;22.30;11.50;;;10.20;99.90;;;;;;5104612;27;20465;-82
2023/05/13 02:46:31;;;;;;;14.82;10.68;;;10.10;99.90;;;;;;5106751;28;20051;-81
2023/05/13 02:48:58;;;;;;;17.85;11.20;;;10.00;99.90;;;;;;5122032;27;20050;-82
2023/05/13 02:51:24;;;;;;;21.50;11.30;;;10.00;99.90;;;;;;5105984;28;20039;-81
2023/05/13 02:53:50;;;;;;;15.82;11.85;;;10.00;99.90;;;;;;5118747;27;20451;-82
2023/05/13 02:56:16;;;;;;;16.23;11.70;;;10.00;99.90;;;;;;5110365;27;20081;-82
2023/05/13 02:58:42;;;;;;;18.30;11.82;;;10.00;99.90;;;;;;5110369;27;20062;-82
2023/05/13 03:01:07;;;;;;;17.27;11.48;;;10.20;99.90;;;;;;5110994;27;20469;-82
2023/05/13 03:03:33;;;;;;;19.13;10.75;;;10.00;99.90;;;;;;5110924;27;20031;-82
2023/05/13 03:05:59;;;;;;;15.02;10.18;;;10.00;99.90;;;;;;5110075;27;20467;-82
2023/05/13 03:08:24;;;;;;;19.60;10.45;;;10.00;99.90;;;;;;5124809;27;20573;-81
2023/05/13 03:10:50;;;;;;;15.55;11.15;;;9.90;99.90;;;;;;5124199;27;20587;-82
2023/05/13 03:13:16;;;;;;;20.90;11.23;;;9.90;99.90;;;;;;5117125;27;20055;-82
2023/05/13 03:15:42;;;;;;;16.13;10.95;;;9.90;99.90;;;;;;5109791;27;20051;-82
2023/05/13 03:18:07;;;;;;;18.63;10.43;;;9.90;99.90;;;;;;5103417;28;20043;-81
2023/05/13 03:20:33;;;;;;;17.73;10.63;;;9.90;99.90;;;;;;5106607;28;20122;-81
2023/05/13 03:22:59;;;;;;;18.77;11.75;;;9.90;99.90;;;;;;5103988;27;20315;-81
2023/05/13 03:25:24;;;;;;;17.55;11.35;;;9.90;99.90;;;;;;5106058;28;20049;-81
2023/05/13 03:27:50;;;;;;;21.40;11.80;;;9.80;99.90;;;;;;5120329;27;20043;-81
2023/05/13 03:30:16;;;;;;;20.17;11.63;;;9.80;99.90;;;;;;5110199;27;20043;-82
2023/05/13 03:32:41;;;;;;;17.27;11.63;;;9.80;99.90;;;;;;5102329;27;20039;-81
2023/05/13 03:35:07;;;;;;;15.68;11.00;;;9.80;99.90;;;;;;5106491;28;20451;-82
2023/05/13 03:37:33;;;;;;;18.48;11.55;;;9.80;99.90;;;;;;5102285;27;20043;-82
2023/05/13 03:40:00;;;;;;;18.60;12.38;;;9.70;99.90;;;;;;5126475;27;20154;-81
2023/05/13 03:42:26;;;;;;;22.33;12.73;;;9.70;99.90;;;;;;5109803;27;20054;-82
2023/05/13 03:44:52;;;;;;;23.05;12.13;;;9.70;99.90;;;;;;5087299;28;20039;-82
2023/05/13 03:47:18;;;;;;;18.27;12.45;;;9.70;99.90;;;;;;5118469;27;20043;-83
2023/05/13 03:49:43;;;;;;;21.85;13.80;;;9.70;99.90;;;;;;5109526;27;20035;-82
2023/05/13 03:52:09;;;;;;;18.05;12.52;;;9.70;99.90;;;;;;5109149;27;20039;-82
2023/05/13 03:54:35;;;;;;;20.20;13.40;;;9.70;99.90;;;;;;5125651;27;20073;-82
2023/05/13 03:57:00;;;;;;;23.60;14.20;;;9.70;99.90;;;;;;5110340;27;20096;-82
2023/05/13 03:59:26;;;;;;;21.52;14.82;;;9.70;99.90;;;;;;5106466;28;20105;-81
2023/05/13 04:01:52;;;;;;;18.63;13.32;;;9.70;99.90;;;;;;5091807;28;20418;-81
2023/05/13 04:04:17;;;;;;;17.58;13.68;;;9.70;99.90;;;;;;5122687;27;20105;-81
2023/05/13 04:06:45;;;;;;;29.42;15.32;;;9.80;99.90;;;;;;5102498;27;20100;-81
2023/05/13 04:09:10;;;;;;;21.85;13.68;;;9.80;99.90;;;;;;5108920;27;20035;-81
2023/05/13 04:11:36;;;;;;;18.88;14.05;;;9.80;99.90;;;;;;5108930;27;20054;-82
2023/05/13 04:14:01;;;;;;;23.55;13.75;;;9.90;99.90;;;;;;5096460;27;20187;-81
2023/05/13 04:16:28;;;;;;;25.17;13.98;;;9.90;99.90;;;;;;5106580;27;20054;-81
2023/05/13 04:18:53;;;;;;;20.30;13.93;;;10.00;99.90;;;;;;5095892;28;20031;-82
2023/05/13 04:21:19;;;;;;;19.13;13.45;;;10.00;99.90;;;;;;5088871;28;20039;-81
2023/05/13 04:23:45;;;;;;;22.95;13.35;;;10.10;99.90;;;;;;5088501;28;20040;-82
2023/05/13 04:26:10;;;;;;;20.92;12.90;;;10.10;99.90;;;;;;5105809;28;20047;-82
2023/05/13 04:28:36;;;;;;;20.60;13.43;;;10.20;99.90;;;;;;5071425;28;20036;-81
2023/05/13 04:31:02;;;;;;;24.23;13.07;;;10.20;99.90;;;;;;5068851;28;20079;-81
2023/05/13 04:33:28;;;;;;;22.05;13.73;;;10.20;99.90;;;;;;5085377;28;20119;-82
2023/05/13 04:35:53;;;;;;;21.90;13.43;;;10.30;99.90;;;;;;5078226;28;20062;-81
2023/05/13 04:38:19;;;;;;;19.08;12.27;;;10.30;99.90;;;;;;5085908;28;20062;-82
2023/05/13 04:40:46;;;;;;;19.75;12.38;;;10.50;99.90;;;;;;5092199;28;20028;-81
2023/05/13 04:43:12;;;;;;;17.23;11.82;;;10.40;99.90;;;;;;5071420;28;20260;-82
2023/05/13 04:45:38;;;;;;;19.38;12.35;;;10.50;99.90;;;;;;5068332;28;20047;-81
2023/05/13 04:48:04;;;;;;;24.20;11.30;;;10.50;99.90;;;;;;5085246;28;20101;-82
2023/05/13 04:50:30;;;;;;;18.92;11.52;;;10.60;99.90;;;;;;5060248;28;20487;-82
2023/05/13 04:52:56;;;;;;;17.65;10.77;;;10.70;99.90;;;;;;5085163;28;20479;-82
2023/05/13 04:55:22;;;;;;;20.95;11.40;;;10.70;99.90;;;;;;5095462;28;20074;-82
2023/05/13 04:57:48;;;;;;;19.85;10.65;;;10.90;99.90;;;;;;5087770;28;20546;-81
2023/05/13 05:00:14;;;;;;;20.90;10.82;;;10.90;99.90;;;;;;5105418;28;20046;-82
2023/05/13 05:02:40;;;;;;;17.00;10.77;;;10.90;99.90;;;;;;5075077;28;20046;-83
2023/05/13 05:05:06;;;;;;;16.30;11.23;;;11.00;99.90;;;;;;5072679;28;20040;-83
2023/05/13 05:07:33;;;;;;;19.05;10.38;;;11.10;99.90;;;;;;5072840;28;20047;-83
2023/05/13 05:09:58;;;;;;;23.95;10.45;;;11.10;99.90;;;;;;5090855;28;20443;-82
2023/05/13 05:12:24;;;;;;;17.58;10.27;;;11.30;99.90;;;;;;5072402;28;20102;-83
2023/05/13 05:14:50;;;;;;;17.00;9.32;;;11.40;99.90;;;;;;5083170;27;20142;-82
2023/05/13 05:17:16;;;;;;;16.63;9.65;;;11.50;99.90;;;;;;5102329;27;20129;-83
2023/05/13 05:19:41;;;;;;;16.58;9.48;;;11.60;99.90;;;;;;5101519;27;20086;-83
2023/05/13 05:22:07;;;;;;;17.42;9.35;;;11.70;99.90;;;;;;5122551;27;20042;-82
2023/05/13 05:24:33;;;;;;;17.60;8.85;;;11.80;99.90;;;;;;5117589;27;20126;-83
2023/05/13 05:26:59;;;;;;;16.75;9.25;;;11.90;99.90;;;;;;5123996;27;20038;-83
2023/05/13 05:29:24;;;;;;;13.90;8.77;;;12.00;99.90;;;;;;5109924;27;20046;-83
2023/05/13 05:31:50;;;;;;;19.85;8.98;;;12.10;99.90;;;;;;5132626;27;20126;-83
2023/05/13 05:34:16;;;;;;;13.70;8.90;;;12.30;99.90;;;;;;5130400;27;20466;-83
2023/05/13 05:36:42;;;;;;;13.93;8.52;;;12.30;99.90;;;;;;5115098;27;20070;-82
2023/05/13 05:39:07;;;;;;;21.52;9.00;;;12.40;99.90;;;;;;5130667;27;20098;-82
2023/05/13 05:41:33;;;;;;;15.82;8.73;;;12.50;99.90;;;;;;5112124;27;20385;-82
2023/05/13 05:43:59;;;;;;;14.80;8.50;;;12.60;99.90;;;;;;5128144;27;20458;-82
2023/05/13 05:46:24;;;;;;;15.80;8.25;;;13.00;99.90;;;;;;5114090;27;20107;-82
2023/05/13 05:48:50;;;;;;;19.85;8.57;;;12.70;99.90;;;;;;5116583;27;20046;-83
2023/05/13 05:51:16;;;;;;;18.63;8.68;;;12.90;99.90;;;;;;5130086;27;20043;-82
2023/05/13 05:53:41;;;;;;;15.75;8.07;;;13.00;99.90;;;;;;5126368;27;20072;-82
2023/05/13 05:56:07;;;;;;;13.85;8.35;;;13.00;99.90;;;;;;5130263;27;20494;-81
2023/05/13 05:58:33;;;;;;;12.95;8.20;;;13.10;99.90;;;;;;5142868;27;20031;-81
2023/05/13 06:00:59;;;;;;;16.17;8.73;;;13.20;99.90;;;;;;5127646;27;20137;-82
2023/05/13 06:03:25;;;;;;;14.95;8.15;;;13.30;99.90;;;;;;5126620;27;20039;-81
2023/05/13 06:05:52;;;;;;;14.10;7.93;;;13.40;99.90;;;;;;5115433;27;20050;-82
2023/05/13 06:08:18;;;;;;;15.25;8.20;;;13.40;99.90;;;;;;5129541;27;20476;-82
2023/05/13 06:10:44;;;;;;;17.50;7.43;;;13.50;99.90;;;;;;5102703;27;20066;-81
2023/05/13 06:13:10;;;;;;;13.68;8.13;;;13.60;99.90;;;;;;5123926;27;20052;-82
2023/05/13 06:15:37;;;;;;;12.32;7.78;;;13.60;99.90;;;;;;5109089;28;20405;-81
2023/05/13 06:18:04;;;;;;;11.85;7.50;;;13.70;99.90;;;;;;5123256;27;20058;-81
2023/05/13 06:20:32;;;;;;;15.48;7.35;;;13.80;99.90;;;;;;5108142;27;20086;-82
2023/05/13 06:22:59;;;;;;;15.32;7.88;;;13.90;99.90;;;;;;5104906;27;20118;-82
2023/05/13 06:25:25;;;;;;;18.10;7.85;;;14.00;99.90;;;;;;5122450;27;20127;-84
2023/05/13 06:27:50;;;;;;;14.25;7.15;;;14.00;99.90;;;;;;5100782;27;20047;-84
2023/05/13 06:30:16;;;;;;;16.67;8.18;;;14.10;99.90;;;;;;5113233;27;20039;-83
2023/05/13 06:32:42;;;;;;;13.88;7.47;;;14.20;99.90;;;;;;5120595;27;20039;-84
2023/05/13 06:35:07;;;;;;;18.60;8.02;;;14.30;99.90;;;;;;5131334;27;20437;-82
2023/05/13 06:37:33;;;;;;;15.43;7.72;;;14.40;99.90;;;;;;5110290;27;20058;-83
2023/05/13 06:39:59;;;;;;;10.05;6.85;;;14.50;99.90;;;;;;5110364;27;20094;-83
2023/05/13 06:42:25;;;;;;;15.88;6.60;;;14.50;99.90;;;;;;5113626;27;20042;-83
2023/05/13 06:44:50;;;;;;;14.52;6.95;;;14.60;99.90;;;;;;5118828;27;20042;-83
2023/05/13 06:47:16;;;;;;;22.17;7.80;;;14.70;99.90;;;;;;5118354;27;20070;-83
2023/05/13 06:49:42;;;;;;;17.52;7.78;;;14.80;99.90;;;;;;5113087;27;20043;-83
2023/05/13 06:52:08;;;;;;;15.98;7.03;;;14.80;99.90;;;;;;5114698;27;20038;-82
2023/05/13 06:54:34;;;;;;;14.07;7.18;;;14.90;99.90;;;;;;5116183;27;20077;-82
2023/05/13 06:57:00;;;;;;;12.82;7.55;;;15.00;99.90;;;;;;5105902;27;20074;-83
2023/05/13 06:59:26;;;;;;;14.93;7.18;;;15.10;99.90;;;;;;5095950;27;20039;-82
2023/05/13 07:01:51;;;;;;;14.98;7.05;;;15.10;99.90;;;;;;5110753;27;20047;-83
2023/05/13 07:04:17;;;;;;;13.20;6.90;;;15.20;99.90;;;;;;5103111;27;20041;-83
2023/05/13 07:06:43;;;;;;;12.35;6.57;;;15.30;99.90;;;;;;5103544;27;20039;-83
2023/05/13 07:09:09;;;;;;;13.23;6.97;;;15.40;99.90;;;;;;5110007;27;20492;-83
2023/05/13 07:11:36;;;;;;;10.63;6.90;;;15.50;99.90;;;;;;5111281;27;20050;-83
2023/05/13 07:14:01;;;;;;;14.02;6.78;;;15.50;99.90;;;;;;5114872;27;20043;-83
2023/05/13 07:16:27;;;;;;;10.15;6.43;;;15.60;99.90;;;;;;5130952;27;20100;-82
2023/05/13 07:18:53;;;;;;;11.30;6.57;;;15.60;99.90;;;;;;5113982;27;20042;-82
2023/05/13 07:21:19;;;;;;;14.35;6.82;;;15.70;99.90;;;;;;5114056;27;20039;-82
2023/05/13 07:23:45;;;;;;;20.17;7.55;;;15.70;99.90;;;;;;5111342;27;20107;-82
2023/05/13 07:26:11;;;;;;;15.70;6.95;;;15.80;99.90;;;;;;5125472;27;20506;-82
2023/05/13 07:28:36;;;;;;;12.93;7.05;;;15.80;99.90;;;;;;5113578;27;20056;-82
2023/05/13 07:31:04;;;;;;;15.45;7.10;;;15.90;99.90;;;;;;5130888;27;20035;-82
2023/05/13 07:33:30;;;;;;;15.93;7.15;;;16.00;99.90;;;;;;5126654;27;20516;-82
2023/05/13 07:35:56;;;;;;;17.67;7.00;;;16.10;99.90;;;;;;5142576;27;20481;-82
2023/05/13 07:38:22;;;;;;;16.20;7.05;;;16.20;99.90;;;;;;5124268;27;20035;-82
2023/05/13 07:40:48;;;;;;;14.10;6.63;;;16.30;99.90;;;;;;5108167;27;20508;-82
2023/05/13 07:43:16;;;;;;;11.63;7.15;;;16.40;99.90;;;;;;5130532;27;20051;-82
2023/05/13 07:45:42;;;;;;;15.57;7.13;;;16.50;99.90;;;;;;5112335;27;20560;-82
2023/05/13 07:48:08;;;;;;;11.95;6.03;;;16.50;99.90;;;;;;5100426;27;20042;-82
2023/05/13 07:50:35;;;;;;;13.02;6.00;;;16.60;99.90;;;;;;5113143;27;20049;-82
2023/05/13 07:53:02;;;;;;;10.80;7.22;;;16.70;99.90;;;;;;5126505;27;20049;-81
2023/05/13 07:55:27;;;;;;;18.77;6.57;;;16.80;99.90;;;;;;5121121;27;20066;-82
2023/05/13 07:57:53;;;;;;;12.32;5.93;;;16.90;99.90;;;;;;5114740;27;20062;-82
2023/05/13 08:00:19;;;;;;;14.30;6.20;;;17.00;99.90;;;;;;5120783;27;20507;-82
2023/05/13 08:02:45;;;;;;;14.30;5.68;;;17.10;99.90;;;;;;5126972;27;20043;-82
2023/05/13 08:05:11;;;;;;;12.60;6.18;;;17.20;99.90;;;;;;5121179;27;20043;-82
2023/05/13 08:07:37;;;;;;;12.07;6.20;;;17.30;99.90;;;;;;5112688;27;20130;-82
2023/05/13 08:10:03;;;;;;;12.65;6.05;;;17.30;99.90;;;;;;5111050;27;20102;-83
2023/05/13 08:12:28;;;;;;;17.05;5.82;;;17.40;99.90;;;;;;5109398;27;20035;-82
2023/05/13 08:14:54;;;;;;;12.82;5.93;;;17.40;99.90;;;;;;5123912;27;20055;-82
2023/05/13 08:17:20;;;;;;;11.05;6.03;;;17.50;99.90;;;;;;5104753;28;20516;-82
2023/05/13 08:19:46;;;;;;;10.80;6.10;;;17.60;99.90;;;;;;5108370;27;20135;-82
2023/05/13 08:22:12;;;;;;;11.38;5.47;;;17.70;99.90;;;;;;5122379;27;20138;-83
2023/05/13 08:24:39;;;;;;;15.60;5.78;;;17.80;99.90;;;;;;5117724;27;20482;-83
2023/05/13 08:27:05;;;;;;;9.45;5.50;;;17.90;99.90;;;;;;5127822;27;20055;-82
2023/05/13 08:29:31;;;;;;;7.40;5.00;;;18.10;99.90;;;;;;5088760;28;20050;-83
2023/05/13 08:31:57;;;;;;;9.18;5.20;;;18.10;99.90;;;;;;5106689;28;20047;-82
2023/05/13 08:34:22;;;;;;;9.25;5.50;;;18.20;99.90;;;;;;5118250;27;20051;-83
2023/05/13 08:36:48;;;;;;;16.10;5.70;;;18.30;99.90;;;;;;5121687;28;20788;-82
2023/05/13 08:39:14;;;;;;;10.82;4.90;;;18.30;99.90;;;;;;5117835;27;20583;-82
2023/05/13 08:41:40;;;;;;;12.07;5.47;;;18.40;99.90;;;;;;5094734;28;20039;-82
2023/05/13 08:44:11;;;;;;;12.60;5.35;;;18.50;99.90;;;;;;5127259;28;20476;-82
2023/05/13 08:46:39;;;;;;;8.77;5.13;;;18.60;99.90;;;;;;5112711;28;20377;-82
2023/05/13 08:49:05;;;;;;;9.88;4.25;;;18.60;99.90;;;;;;5123287;28;20048;-83
2023/05/13 08:51:31;;;;;;;11.93;5.35;;;18.60;99.90;;;;;;5105031;28;20043;-83
2023/05/13 08:53:57;;;;;;;9.65;4.40;;;18.70;99.90;;;;;;5103669;28;20069;-83
2023/05/13 08:56:27;;;;;;;12.68;4.53;;;18.70;99.90;;;;;;5125129;28;20429;-82
2023/05/13 08:58:53;;;;;;;12.85;5.32;;;18.80;99.90;;;;;;5109343;28;20047;-83
2023/05/13 09:01:20;;;;;;;9.82;4.38;;;18.90;99.90;;;;;;5108742;28;20123;-83
2023/05/13 09:03:56;;;;;;;18.58;5.28;;;19.00;99.90;;;;;;5115662;28;20359;-82
2023/05/13 09:06:22;;;;;;;9.75;4.93;;;19.10;99.90;;;;;;5122118;28;20537;-82
2023/05/13 09:08:47;;;;;;;14.35;4.57;;;19.20;99.90;;;;;;5140380;27;20047;-82
2023/05/13 09:11:14;;;;;;;15.70;4.82;;;19.20;99.90;;;;;;5092018;28;20065;-82
2023/05/13 09:13:42;;;;;;;6.90;4.20;;;19.30;99.90;;;;;;5108594;28;20549;-82
2023/05/13 09:16:08;;;;;;;12.27;4.40;;;19.30;99.90;;;;;;5092190;28;20379;-82
2023/05/13 09:18:34;;;;;;;13.75;4.22;;;19.40;99.90;;;;;;5124554;28;20079;-81
2023/05/13 09:21:22;;;;;;;9.82;3.92;;;19.50;99.90;;;;;;5125756;28;20510;-82
2023/05/13 09:23:47;;;;;;;18.48;4.30;;;19.60;99.90;;;;;;5126245;28;20050;-82
2023/05/13 09:26:27;;;;;;;12.43;4.25;;;19.70;99.90;;;;;;5108014;28;20047;-82
2023/05/13 09:29:16;;;;;;;20.40;4.25;;;19.80;99.90;;;;;;5109328;28;20076;-83
2023/05/13 09:31:43;;;;;;;9.90;4.50;;;19.90;99.90;;;;;;5105240;28;20035;-82
2023/05/13 09:34:09;;;;;;;8.75;4.00;;;20.00;99.90;;;;;;5126542;28;20135;-82
2023/05/13 09:36:35;;;;;;;10.88;4.78;;;20.00;99.90;;;;;;5121190;28;20118;-82
2023/05/13 09:39:02;;;;;;;11.20;4.30;;;20.10;99.90;;;;;;5131868;27;20042;-82
2023/05/13 09:41:29;;;;;;;12.45;3.85;;;20.20;99.90;;;;;;5102204;28;20417;-83
2023/05/13 09:43:56;;;;;;;11.77;3.90;;;20.20;99.90;;;;;;5118014;28;20055;-83
2023/05/13 09:46:23;;;;;;;8.52;4.32;;;20.30;99.90;;;;;;5124549;28;20031;-82
2023/05/13 09:48:54;;;;;;;12.02;3.95;;;20.40;99.90;;;;;;5108852;28;20039;-82
2023/05/13 09:51:25;;;;;;;10.98;3.80;;;20.40;99.90;;;;;;5125692;27;20406;-82
2023/05/13 09:53:51;;;;;;;7.32;3.65;;;20.50;99.90;;;;;;5120047;27;20062;-82
2023/05/13 09:56:21;;;;;;;8.20;3.42;;;20.50;99.90;;;;;;5128928;27;20042;-82
2023/05/13 09:58:51;;;;;;;15.18;4.30;;;20.60;99.90;;;;;;5112698;27;20146;-82
2023/05/13 10:01:18;;;;;;;10.52;3.80;;;20.60;99.90;;;;;;5111213;27;20039;-82
2023/05/13 10:03:45;;;;;;;8.70;3.92;;;20.70;99.90;;;;;;5110600;27;20059;-83
2023/05/13 10:06:10;;;;;;;9.82;3.92;;;20.80;99.90;;;;;;5110989;27;20090;-83
2023/05/13 10:08:38;;;;;;;7.43;4.10;;;20.80;99.90;;;;;;5111498;27;20079;-82
2023/05/13 10:11:05;;;;;;;9.13;4.07;;;20.90;99.90;;;;;;5112321;27;20055;-82
2023/05/13 10:13:32;;;;;;;17.73;4.80;;;20.90;99.90;;;;;;5127713;27;20448;-83
2023/05/13 10:15:58;;;;;;;10.88;4.05;;;21.00;99.90;;;;;;5119161;27;20087;-82
2023/05/13 10:18:24;;;;;;;9.15;4.07;;;21.00;99.90;;;;;;5107891;27;20085;-83
2023/05/13 10:20:51;;;;;;;15.25;4.43;;;21.10;99.90;;;;;;5124927;27;20126;-83
2023/05/13 10:23:18;;;;;;;11.75;4.32;;;21.10;99.90;;;;;;5108080;27;20045;-83
2023/05/13 10:25:46;;;;;;;16.95;5.30;;;21.20;99.90;;;;;;5111300;27;20047;-82
2023/05/13 10:28:13;;;;;;;12.63;3.72;;;21.30;99.90;;;;;;5110854;27;20043;-83
2023/05/13 10:30:40;;;;;;;9.30;4.28;;;21.30;99.90;;;;;;5127968;27;20050;-82
2023/05/13 10:33:06;;;;;;;9.50;4.10;;;21.30;99.90;;;;;;5128839;27;20076;-83
2023/05/13 10:35:35;;;;;;;10.38;3.92;;;21.40;99.90;;;;;;5127202;27;20043;-83
2023/05/13 10:38:09;;;;;;;7.90;4.00;;;21.40;99.90;;;;;;5109282;27;20118;-82
2023/05/13 10:41:03;;;;;;;11.32;3.83;;;21.40;99.90;;;;;;5127998;27;20122;-83
2023/05/13 10:43:31;;;;;;;10.75;4.30;;;21.40;99.90;;;;;;5098728;27;20092;-83
2023/05/13 10:46:02;;;;;;;8.32;4.40;;;21.40;99.90;;;;;;5110431;27;20138;-82
2023/05/13 10:48:46;;;;;;;9.20;4.45;;;21.50;99.90;;;;;;5124320;27;20043;-82
2023/05/13 10:51:14;;;;;;;9.55;4.15;;;21.60;99.90;;;;;;5105675;28;20047;-82
2023/05/13 10:53:49;;;;;;;12.25;4.22;;;21.70;99.90;;;;;;5120127;27;20035;-83
2023/05/13 10:56:18;;;;;;;9.93;4.00;;;21.70;99.90;;;;;;5127022;27;20051;-83
2023/05/13 10:58:58;;;;;;;8.75;4.20;;;21.70;99.90;;;;;;5125204;27;20043;-82
2023/05/13 11:01:29;;;;;;;9.77;3.95;;;21.70;99.90;;;;;;5123990;27;20055;-83
2023/05/13 11:04:00;;;;;;;9.73;4.03;;;21.70;99.90;;;;;;5113257;27;20125;-83
2023/05/13 11:06:36;;;;;;;9.18;4.13;;;21.70;99.90;;;;;;5124022;27;20367;-83
2023/05/13 11:09:06;;;;;;;21.23;4.50;;;21.80;99.90;;;;;;5126160;27;20118;-82
2023/05/13 11:11:34;;;;;;;15.20;4.43;;;21.80;99.90;;;;;;5123485;27;20058;-82
2023/05/13 11:14:13;;;;;;;9.45;3.80;;;21.80;99.90;;;;;;5110933;27;20084;-83
2023/05/13 11:16:45;;;;;;;11.07;3.90;;;21.90;99.90;;;;;;5095568;28;20536;-83
2023/05/13 11:19:22;;;;;;;10.70;3.80;;;22.00;99.90;;;;;;5111118;27;20071;-82
2023/05/13 11:21:51;;;;;;;8.82;2.80;;;22.00;99.90;;;;;;5127402;27;20047;-83
2023/05/13 11:24:19;;;;;;;8.38;3.42;;;22.00;99.90;;;;;;5127003;27;20566;-83
2023/05/13 11:26:56;;;;;;;9.25;3.08;;;22.00;99.90;;;;;;5110763;27;20050;-83
2023/05/13 11:29:27;;;;;;;10.38;2.55;;;22.00;99.90;;;;;;5110747;27;20043;-83
2023/05/13 11:31:55;;;;;;;8.90;3.05;;;22.10;99.90;;;;;;5109092;27;20505;-83
2023/05/13 11:34:21;;;;;;;12.23;3.70;;;22.10;99.90;;;;;;5124018;27;20054;-83
2023/05/13 11:36:50;;;;;;;11.90;5.55;;;22.20;99.90;;;;;;5140549;27;20036;-83
2023/05/13 11:39:19;;;;;;;11.02;5.68;;;22.10;99.90;;;;;;5119744;27;20512;-83
2023/05/13 11:41:47;;;;;;;13.80;5.70;;;22.10;99.90;;;;;;5090339;28;20398;-82
2023/05/13 11:44:14;;;;;;;10.32;4.82;;;22.00;99.90;;;;;;5108362;27;20055;-83
2023/05/13 11:46:56;;;;;;;8.02;4.90;;;22.00;99.90;;;;;;5108542;27;20039;-83
2023/05/13 11:49:34;;;;;;;17.70;5.27;;;22.10;99.90;;;;;;5109668;27;20051;-83
2023/05/13 11:52:02;;;;;;;15.35;4.97;;;22.10;99.90;;;;;;5106192;28;20281;-83
2023/05/13 11:54:28;;;;;;;10.63;6.03;;;22.00;99.90;;;;;;5125998;27;20042;-83
2023/05/13 11:56:53;;;;;;;12.98;5.85;;;22.00;99.90;;;;;;5110513;27;20039;-82
2023/05/13 11:59:19;;;;;;;12.88;5.93;;;21.90;99.90;;;;;;5109301;27;20482;-83
2023/05/13 12:01:45;;;;;;;15.05;6.10;;;21.80;99.90;;;;;;5127451;27;20477;-82
2023/05/13 12:04:12;;;;;;;14.18;5.82;;;21.80;99.90;;;;;;5127139;27;20171;-82
2023/05/13 12:06:44;;;;;;;20.75;5.38;;;21.80;99.90;;;;;;5109033;27;20050;-82
2023/05/13 12:09:11;;;;;;;8.48;4.38;;;21.80;99.90;;;;;;5107148;28;20092;-82
2023/05/13 12:11:37;;;;;;;9.77;3.97;;;21.80;99.90;;;;;;5117157;27;20047;-82
2023/05/13 12:14:03;;;;;;;12.85;3.22;;;21.90;99.90;;;;;;5105183;28;20397;-82
2023/05/13 12:16:29;;;;;;;10.70;3.50;;;22.10;99.90;;;;;;5101895;27;20247;-82
2023/05/13 12:18:59;;;;;;;11.93;3.90;;;22.10;99.90;;;;;;5087567;28;20037;-82
2023/05/13 12:21:28;;;;;;;10.30;3.42;;;22.30;99.90;;;;;;5116859;27;20452;-82
2023/05/13 12:23:53;;;;;;;9.40;4.32;;;22.30;99.90;;;;;;5110265;27;20130;-82
2023/05/13 12:26:20;;;;;;;11.65;4.88;;;22.30;99.90;;;;;;5109209;28;20046;-82
2023/05/13 12:28:46;;;;;;;15.25;4.10;;;22.30;99.90;;;;;;5109565;28;20039;-82
2023/05/13 12:31:16;;;;;;;8.98;4.20;;;22.30;99.90;;;;;;5125027;27;20047;-82
2023/05/13 12:33:45;;;;;;;8.30;4.35;;;22.30;99.90;;;;;;5118278;27;20096;-82
2023/05/13 12:36:18;;;;;;;14.88;6.03;;;22.30;99.90;;;;;;5104825;28;20394;-82